Terminal Aerodrome Forecast
Issued by NWS Sioux Falls, SD

Home | Current Version | Previous Version | Graphics & Text | Print | Product List | Glossary On
Versions: 1 2 3 4 5 6 7 8 9 10 11 12 13
000
FTUS43 KFSD 150531
TAFSUX
TAF
KSUX 150531Z 1506/1606 33012KT P6SM BKN045
     FM150900 30005KT P6SM BKN070
     FM151600 24007KT P6SM SCT130
     FM152200 21009KT P6SM SCT250=

USA.gov is the U.S. government's official web portal to all federal, state and local government web resources and services.